Time;durP1;ratioP1;P1;durP2;ratioP2;P2;SDS_P1;SDS_P2;PMS_P1;PMS_P2;Temp;Humidity;BMP_temperature;BMP_pressure;BME280_temperature;BME280_humidity;BME280_pressure;Samples;Min_cycle;Max_cycle;Signal;HPM_P1;HPM_P2
2023/08/18 00:02:00;;;;;;;;;;;;;;;24.54;100.00;99702.25;4970298;28;20016;-75
2023/08/18 00:04:26;;;;;;;;;;;;;;;24.39;100.00;99707.22;4970942;28;19945;-75
2023/08/18 00:06:51;;;;;;;;;;;;;;;24.39;100.00;99696.41;4973856;28;19922;-75
2023/08/18 00:09:16;;;;;;;;;;;;;;;24.40;100.00;99692.69;4971424;28;20378;-74
2023/08/18 00:11:42;;;;;;;;;;;;;;;24.48;100.00;99697.75;4971220;28;19978;-74
2023/08/18 00:14:07;;;;;;;;;;;;;;;24.52;100.00;99698.94;4971777;28;19929;-75
2023/08/18 00:16:33;;;;;;;;;;;;;;;24.54;100.00;99696.84;4975180;28;19930;-75
2023/08/18 00:18:58;;;;;;;;;;;;;;;24.48;100.00;99697.75;4974972;28;19969;-75
2023/08/18 00:21:23;;;;;;;;;;;;;;;24.38;100.00;99694.81;4974014;28;19922;-73
2023/08/18 00:23:49;;;;;;;;;;;;;;;24.35;100.00;99703.34;4974768;28;19926;-74
2023/08/18 00:26:14;;;;;;;;;;;;;;;24.29;100.00;99698.84;4974773;28;19922;-75
2023/08/18 00:28:40;;;;;;;;;;;;;;;24.33;100.00;99700.03;4981292;28;19932;-75
2023/08/18 00:31:07;;;;;;;;;;;;;;;24.47;100.00;99706.91;4997661;28;20393;-75
2023/08/18 00:33:32;;;;;;;;;;;;;;;24.43;100.00;99700.31;4994203;28;19922;-73
2023/08/18 00:35:57;;;;;;;;;;;;;;;24.40;100.00;99700.78;5003687;28;20017;-75
2023/08/18 00:38:23;;;;;;;;;;;;;;;24.38;100.00;99705.59;4972840;28;19922;-75
2023/08/18 00:40:48;;;;;;;;;;;;;;;24.41;100.00;99703.25;4974509;28;20284;-75
2023/08/18 00:43:14;;;;;;;;;;;;;;;24.44;100.00;99712.78;4974530;28;20341;-75
2023/08/18 00:45:39;;;;;;;;;;;;;;;24.53;100.00;99708.69;4972715;28;20402;-75
2023/08/18 00:48:05;;;;;;;;;;;;;;;24.51;100.00;99708.06;4974370;28;19922;-74
2023/08/18 00:50:31;;;;;;;;;;;;;;;24.56;100.00;99710.94;4969991;28;20370;-74
2023/08/18 00:52:58;;;;;;;;;;;;;;;24.57;100.00;99717.13;4972849;28;19922;-75
2023/08/18 00:55:23;;;;;;;;;;;;;;;24.60;100.00;99712.13;4974014;28;19933;-74
2023/08/18 00:57:49;;;;;;;;;;;;;;;24.59;100.00;99715.84;4988215;28;20382;-75
2023/08/18 01:00:15;;;;;;;;;;;;;;;24.66;100.00;99716.59;4972000;28;20019;-74
2023/08/18 01:02:40;;;;;;;;;;;;;;;24.70;100.00;99717.78;4971471;28;20061;-75
2023/08/18 01:05:06;;;;;;;;;;;;;;;24.64;100.00;99712.47;4976062;28;19930;-75
2023/08/18 01:07:32;;;;;;;;;;;;;;;24.65;100.00;99714.13;4988283;28;19929;-74
2023/08/18 01:09:57;;;;;;;;;;;;;;;24.59;100.00;99712.34;4972967;28;19969;-74
2023/08/18 01:12:35;;;;;;;;;;;;;;;24.47;100.00;99715.00;4988710;28;20012;-73
2023/08/18 01:15:07;;;;;;;;;;;;;;;24.45;100.00;99706.28;4974176;28;19930;-75
2023/08/18 01:17:37;;;;;;;;;;;;;;;24.44;100.00;99699.28;4970072;28;19969;-75
2023/08/18 01:20:03;;;;;;;;;;;;;;;24.47;100.00;99702.34;4972934;28;19922;-76
2023/08/18 01:22:29;;;;;;;;;;;;;;;24.13;100.00;99696.75;4971860;28;19929;-75
2023/08/18 01:24:59;;;;;;;;;;;;;;;23.96;100.00;99700.09;4988672;28;19929;-76
2023/08/18 01:27:24;;;;;;;;;;;;;;;23.90;100.00;99697.47;4973639;28;19922;-76
2023/08/18 01:29:49;;;;;;;;;;;;;;;24.02;100.00;99701.88;4988642;28;19926;-75
2023/08/18 01:32:16;;;;;;;;;;;;;;;24.04;100.00;99702.44;4973779;28;20357;-74
2023/08/18 01:34:43;;;;;;;;;;;;;;;24.11;100.00;99696.16;4984783;28;19930;-73
2023/08/18 01:37:09;;;;;;;;;;;;;;;24.12;100.00;99697.81;4974741;28;19930;-76
2023/08/18 01:39:34;;;;;;;;;;;;;;;24.08;100.00;99698.28;4971462;28;19969;-74
2023/08/18 01:42:01;;;;;;;;;;;;;;;24.04;100.00;99697.06;4973072;28;20421;-74
2023/08/18 01:44:27;;;;;;;;;;;;;;;24.01;100.00;99700.22;4987658;28;19994;-74
2023/08/18 01:46:53;;;;;;;;;;;;;;;23.66;100.00;99699.19;4971553;28;20334;-74
2023/08/18 01:49:20;;;;;;;;;;;;;;;23.52;100.00;99703.06;4972894;28;19972;-74
2023/08/18 01:51:46;;;;;;;;;;;;;;;23.43;100.00;99699.81;4972582;28;19958;-73
2023/08/18 01:54:13;;;;;;;;;;;;;;;23.44;100.00;99706.03;4972548;28;19964;-75
2023/08/18 01:56:38;;;;;;;;;;;;;;;23.46;100.00;99703.91;4972484;28;20049;-75
2023/08/18 01:59:04;;;;;;;;;;;;;;;23.39;100.00;99705.84;4971804;28;19965;-75
2023/08/18 02:01:29;;;;;;;;;;;;;;;23.40;100.00;99700.25;4971383;28;19926;-75
2023/08/18 02:03:55;;;;;;;;;;;;;;;23.44;100.00;99700.63;4971607;28;19922;-74
2023/08/18 02:06:20;;;;;;;;;;;;;;;23.43;100.00;99704.38;4970977;28;20001;-74
2023/08/18 02:08:46;;;;;;;;;;;;;;;23.41;100.00;99695.69;4987434;28;19922;-75
2023/08/18 02:11:11;;;;;;;;;;;;;;;23.36;100.00;99703.59;4972646;28;19930;-76
2023/08/18 02:13:36;;;;;;;;;;;;;;;23.31;100.00;99706.16;4972401;28;19932;-75
2023/08/18 02:16:02;;;;;;;;;;;;;;;23.18;100.00;99697.13;4971602;28;19922;-75
2023/08/18 02:18:29;;;;;;;;;;;;;;;23.07;100.00;99700.56;4972478;28;19922;-75
2023/08/18 02:20:55;;;;;;;;;;;;;;;22.98;100.00;99696.47;4972550;28;20349;-74
2023/08/18 02:23:21;;;;;;;;;;;;;;;23.02;100.00;99691.50;4971627;28;19922;-76
2023/08/18 02:25:46;;;;;;;;;;;;;;;23.00;100.00;99699.78;4987243;28;19945;-76
2023/08/18 02:28:12;;;;;;;;;;;;;;;23.05;100.00;99702.63;4972470;28;19929;-75
2023/08/18 02:30:37;;;;;;;;;;;;;;;22.98;100.00;99696.47;4972271;28;19926;-74
2023/08/18 02:33:03;;;;;;;;;;;;;;;22.78;100.00;99695.81;4971357;28;19926;-75
2023/08/18 02:35:28;;;;;;;;;;;;;;;22.68;100.00;99690.06;4974969;28;20298;-75
2023/08/18 02:37:54;;;;;;;;;;;;;;;22.61;100.00;99694.66;4971703;28;19945;-74
2023/08/18 02:40:19;;;;;;;;;;;;;;;22.49;100.00;99701.78;4972145;28;19969;-74
2023/08/18 02:42:45;;;;;;;;;;;;;;;22.21;100.00;99704.81;4970704;28;20310;-74
2023/08/18 02:45:11;;;;;;;;;;;;;;;22.10;100.00;99706.31;4971009;28;20008;-75
2023/08/18 02:47:38;;;;;;;;;;;;;;;22.10;100.00;99703.63;4986824;28;19938;-75
2023/08/18 02:50:05;;;;;;;;;;;;;;;22.24;100.00;99699.00;4987302;28;19933;-75
2023/08/18 02:52:31;;;;;;;;;;;;;;;22.37;100.00;99704.31;4967757;28;19929;-76
2023/08/18 02:54:56;;;;;;;;;;;;;;;22.41;100.00;99700.16;4972276;28;20294;-75
2023/08/18 02:57:22;;;;;;;;;;;;;;;22.37;100.00;99699.78;5007474;23;19972;-84
2023/08/18 02:59:47;;;;;;;;;;;;;;;22.37;100.00;99699.78;4972003;28;19922;-85
2023/08/18 03:02:12;;;;;;;;;;;;;;;22.36;100.00;99700.81;4971111;28;19918;-86
2023/08/18 03:04:38;;;;;;;;;;;;;;;22.38;100.00;99703.28;4972137;28;20356;-87
2023/08/18 03:07:03;;;;;;;;;;;;;;;22.44;100.00;99699.75;4972730;28;19992;-85
2023/08/18 03:09:28;;;;;;;;;;;;;;;22.43;100.00;99698.91;4971965;28;19918;-85
2023/08/18 03:11:54;;;;;;;;;;;;;;;22.37;100.00;99694.41;4971576;28;20324;-85
2023/08/18 03:14:19;;;;;;;;;;;;;;;22.32;100.00;99694.22;4986549;28;19922;-83
2023/08/18 03:16:44;;;;;;;;;;;;;;;22.29;100.00;99691.94;4981452;28;19922;-84
2023/08/18 03:19:10;;;;;;;;;;;;;;;22.32;100.00;99696.91;4972532;28;19922;-86
2023/08/18 03:21:36;;;;;;;;;;;;;;;22.31;100.00;99697.94;4971086;28;20379;-87
2023/08/18 03:24:01;;;;;;;;;;;;;;;22.37;100.00;99694.41;4971237;28;19929;-88
2023/08/18 03:26:27;;;;;;;;;;;;;;;22.40;100.00;99693.94;4971199;28;19922;-88
2023/08/18 03:28:56;;;;;;;;;;;;;;;22.34;100.00;99700.19;4971771;28;20394;-86
2023/08/18 03:31:23;;;;;;;;;;;;;;;22.34;100.00;99702.88;4977858;28;19923;-83
2023/08/18 03:33:48;;;;;;;;;;;;;;;22.16;100.00;99701.94;4992882;28;20013;-84
2023/08/18 03:36:18;;;;;;;;;;;;;;;22.10;100.00;99700.94;4976626;28;20268;-85
2023/08/18 03:38:43;;;;;;;;;;;;;;;21.96;100.00;99712.78;4993617;28;19930;-84
2023/08/18 03:41:09;;;;;;;;;;;;;;;21.89;100.00;99711.94;4960698;28;19922;-84
2023/08/18 03:43:34;;;;;;;;;;;;;;;21.98;100.00;99710.69;4993791;28;19926;-84
2023/08/18 03:46:02;;;;;;;;;;;;;;;22.00;100.00;99708.63;4960231;28;20244;-85
2023/08/18 03:48:28;;;;;;;;;;;;;;;21.81;100.00;99714.84;4979035;28;19922;-85
2023/08/18 03:50:56;;;;;;;;;;;;;;;21.76;100.00;99714.66;4980811;28;19923;-85
2023/08/18 03:53:24;;;;;;;;;;;;;;;21.85;100.00;99710.72;4968710;28;20018;-84
2023/08/18 03:55:50;;;;;;;;;;;;;;;21.93;100.00;99713.16;4997428;28;19923;-82
2023/08/18 03:58:15;;;;;;;;;;;;;;;22.01;100.00;99721.03;4984268;28;19989;-84
2023/08/18 04:00:41;;;;;;;;;;;;;;;22.05;100.00;99722.25;4996649;28;19972;-84
2023/08/18 04:03:07;;;;;;;;;;;;;;;22.13;100.00;99724.69;4962217;28;19951;-84
2023/08/18 04:05:32;;;;;;;;;;;;;;;22.15;100.00;99721.81;4966827;28;19945;-86
2023/08/18 04:07:57;;;;;;;;;;;;;;;22.13;100.00;99713.94;4979490;28;19922;-86
2023/08/18 04:10:23;;;;;;;;;;;;;;;22.18;100.00;99716.81;4999132;28;19929;-86
2023/08/18 04:12:49;;;;;;;;;;;;;;;22.12;100.00;99725.75;4968325;28;19922;-86
2023/08/18 04:15:14;;;;;;;;;;;;;;;21.90;100.00;99724.34;4966616;28;19923;-86
2023/08/18 04:17:39;;;;;;;;;;;;;;;21.84;100.00;99730.56;4968202;28;19926;-86
2023/08/18 04:20:08;;;;;;;;;;;;;;;21.85;100.00;99732.22;4978855;28;19930;-86
2023/08/18 04:22:34;;;;;;;;;;;;;;;21.90;100.00;99724.34;4989313;28;20021;-86
2023/08/18 04:24:59;;;;;;;;;;;;;;;21.97;100.00;99725.19;4998204;28;19984;-86
2023/08/18 04:27:24;;;;;;;;;;;;;;;22.04;100.00;99731.34;4969795;28;19926;-85
2023/08/18 04:29:51;;;;;;;;;;;;;;;22.02;100.00;99722.69;4999097;28;19926;-86
2023/08/18 04:32:17;;;;;;;;;;;;;;;22.04;100.00;99731.34;5005154;28;19953;-86
2023/08/18 04:34:42;;;;;;;;;;;;;;;22.07;100.00;99730.94;4984778;28;19922;-86
2023/08/18 04:37:08;;;;;;;;;;;;;;;22.05;100.00;99728.44;4963718;28;19922;-86
2023/08/18 04:39:33;;;;;;;;;;;;;;;22.05;100.00;99733.00;4966437;28;19922;-86
2023/08/18 04:41:58;;;;;;;;;;;;;;;22.03;100.00;99733.19;4994776;28;19926;-87
2023/08/18 04:44:26;;;;;;;;;;;;;;;22.09;100.00;99734.22;4994155;28;20398;-85
2023/08/18 04:46:51;;;;;;;;;;;;;;;22.15;100.00;99738.72;4979047;28;19927;-85
2023/08/18 04:49:21;;;;;;;;;;;;;;;22.20;100.00;99736.25;4969178;28;19926;-86
2023/08/18 04:51:46;;;;;;;;;;;;;;;22.23;100.00;99735.81;4960078;28;19926;-86
2023/08/18 04:54:12;;;;;;;;;;;;;;;22.21;100.00;99734.38;4994857;28;19928;-86
2023/08/18 04:56:38;;;;;;;;;;;;;;;22.30;100.00;99743.84;4999185;28;19957;-86
2023/08/18 04:59:03;;;;;;;;;;;;;;;22.32;100.00;99734.56;4974398;28;19964;-87
2023/08/18 05:01:28;;;;;;;;;;;;;;;22.31;100.00;99730.22;4972289;28;19953;-88
2023/08/18 05:03:54;;;;;;;;;;;;;;;22.30;100.00;99727.72;4989047;28;19926;-86
2023/08/18 05:06:19;;;;;;;;;;;;;;;22.27;100.00;99731.66;4973505;28;20363;-85
2023/08/18 05:08:45;;;;;;;;;;;;;;;22.21;100.00;99735.19;4972585;28;20442;-88
2023/08/18 05:11:11;;;;;;;;;;;;;;;22.19;100.00;99739.97;4988766;28;20417;-87
2023/08/18 05:13:37;;;;;;;;;;;;;;;22.16;100.00;99737.69;4971890;28;20303;-87
2023/08/18 05:16:03;;;;;;;;;;;;;;;22.11;100.00;99747.44;4973880;28;19988;-86
2023/08/18 05:18:29;;;;;;;;;;;;;;;22.14;100.00;99750.53;4973178;28;20370;-87
2023/08/18 05:20:57;;;;;;;;;;;;;;;22.12;100.00;99749.09;4973630;28;20294;-86
2023/08/18 05:23:24;;;;;;;;;;;;;;;22.13;100.00;99751.56;4973132;28;19962;-85
2023/08/18 05:25:53;;;;;;;;;;;;;;;22.16;100.00;99750.31;4972288;28;19922;-83
2023/08/18 05:28:19;;;;;;;;;;;;;;;22.08;100.00;99748.72;4987797;28;19918;-85
2023/08/18 05:30:45;;;;;;;;;;;;;;;22.08;100.00;99751.41;4973110;28;19926;-84
2023/08/18 05:33:10;;;;;;;;;;;;;;;22.04;100.00;99759.03;4972852;28;19929;-84
2023/08/18 05:35:36;;;;;;;;;;;;;;;22.10;100.00;99746.63;4973056;28;19922;-84
2023/08/18 05:38:01;;;;;;;;;;;;;;;22.11;100.00;99750.97;4972908;28;19930;-82
2023/08/18 05:40:26;;;;;;;;;;;;;;;22.11;100.00;99753.66;4972915;28;20012;-82
2023/08/18 05:42:52;;;;;;;;;;;;;;;22.03;100.00;99751.22;4995892;28;19922;-82
2023/08/18 05:45:17;;;;;;;;;;;;;;;22.08;100.00;99754.09;4962062;28;19947;-83
2023/08/18 05:47:42;;;;;;;;;;;;;;;22.04;100.00;99758.22;4993542;28;19922;-84
2023/08/18 05:50:08;;;;;;;;;;;;;;;22.14;100.00;99758.59;4968521;28;20379;-72
2023/08/18 05:52:33;;;;;;;;;;;;;;;22.24;100.00;99767.03;4972730;28;20435;-74
2023/08/18 05:54:59;;;;;;;;;;;;;;;22.30;100.00;99768.03;4973157;28;19953;-73
2023/08/18 05:57:24;;;;;;;;;;;;;;;22.39;100.00;99764.06;4974010;28;19985;-74
2023/08/18 05:59:50;;;;;;;;;;;;;;;22.37;100.00;99761.63;4974960;28;19932;-73
2023/08/18 06:02:15;;;;;;;;;;;;;;;22.44;100.00;99758.91;4975368;28;20394;-73
2023/08/18 06:04:41;;;;;;;;;;;;;;;22.45;100.00;99755.97;4971170;28;20631;-74
2023/08/18 06:07:07;;;;;;;;;;;;;;;22.46;100.00;99752.25;4975004;28;20383;-73
2023/08/18 06:09:33;;;;;;;;;;;;;;;22.50;100.00;99751.84;4974792;28;19922;-74
2023/08/18 06:11:58;;;;;;;;;;;;;;;22.53;100.00;99754.06;4979946;28;19922;-73
2023/08/18 06:14:23;;;;;;;;;;;;;;;22.56;100.00;99753.66;4978379;28;19922;-73
2023/08/18 06:16:49;;;;;;;;;;;;;;;22.52;100.00;99757.81;4979386;28;20271;-73
2023/08/18 06:19:14;;;;;;;;;;;;;;;22.58;100.00;99765.00;4978864;28;19923;-73
2023/08/18 06:21:39;;;;;;;;;;;;;;;22.61;100.00;99764.59;4981319;28;19961;-74
2023/08/18 06:24:05;;;;;;;;;;;;;;;22.64;100.00;99759.59;4978557;28;19984;-73
2023/08/18 06:26:30;;;;;;;;;;;;;;;22.63;100.00;99762.50;4979762;28;19945;-73
2023/08/18 06:28:56;;;;;;;;;;;;;;;22.67;100.00;99774.50;4992773;28;19957;-72
2023/08/18 06:31:21;;;;;;;;;;;;;;;22.77;100.00;99767.63;4993504;28;19929;-73
2023/08/18 06:33:46;;;;;;;;;;;;;;;22.75;100.00;99771.56;4979075;28;20410;-73
2023/08/18 06:36:12;;;;;;;;;;;;;;;22.77;100.00;99764.94;4972001;28;19956;-73
2023/08/18 06:38:37;;;;;;;;;;;;;;;22.76;100.00;99763.28;4977696;28;19926;-72
2023/08/18 06:41:03;;;;;;;;;;;;;;;22.83;100.00;99764.06;4968903;28;20033;-72
2023/08/18 06:43:28;;;;;;;;;;;;;;;22.90;100.00;99763.22;4970861;28;19923;-72
2023/08/18 06:45:54;;;;;;;;;;;;;;;23.01;100.00;99766.03;4971959;28;20359;-73
2023/08/18 06:48:19;;;;;;;;;;;;;;;23.08;100.00;99771.38;4972154;28;20768;-73
2023/08/18 06:50:45;;;;;;;;;;;;;;;23.21;100.00;99774.75;4967480;28;19926;-76
2023/08/18 06:53:10;;;;;;;;;;;;;;;23.26;100.00;99777.63;4972359;28;20513;-75
2023/08/18 06:55:35;;;;;;;;;;;;;;;23.24;100.00;99774.34;4969665;28;20021;-76
2023/08/18 06:58:01;;;;;;;;;;;;;;;23.31;100.00;99776.16;4969334;28;19981;-76
2023/08/18 07:00:26;;;;;;;;;;;;;;;23.38;100.00;99771.53;4972044;28;19929;-75
2023/08/18 07:02:52;;;;;;;;;;;;;;;23.41;100.00;99773.78;4986688;28;19922;-77
2023/08/18 07:05:17;;;;;;;;;;;;;;;23.48;100.00;99771.88;4972332;28;19930;-76
2023/08/18 07:07:43;;;;;;;;;;;;;;;23.56;100.00;99774.31;4972265;28;19922;-79
2023/08/18 07:10:09;;;;;;;;;;;;;;;23.63;100.00;99775.03;4978494;28;20296;-77
2023/08/18 07:12:37;;;;;;;;;;;;;;;23.67;100.00;99765.50;4982975;28;20277;-76
2023/08/18 07:15:03;;;;;;;;;;;;;;;23.70;100.00;99769.59;4971777;28;20398;-76
2023/08/18 07:17:28;;;;;;;;;;;;;;;23.78;100.00;99772.84;4971739;28;20009;-76
2023/08/18 07:19:54;;;;;;;;;;;;;;;23.91;100.00;99775.41;4976388;28;19964;-75
2023/08/18 07:22:19;;;;;;;;;;;;;;;24.03;100.00;99768.19;4986678;28;19973;-75
2023/08/18 07:24:46;;;;;;;;;;;;;;;24.13;100.00;99775.78;4974340;28;19926;-75
2023/08/18 07:27:11;;;;;;;;;;;;;;;24.20;100.00;99778.44;4975406;28;19989;-74
2023/08/18 07:29:37;;;;;;;;;;;;;;;24.21;100.00;99772.00;4975676;28;20291;-78
2023/08/18 07:32:02;;;;;;;;;;;;;;;24.21;100.00;99772.00;4975679;28;19966;-77
2023/08/18 07:34:28;;;;;;;;;;;;;;;24.27;100.00;99771.09;4975253;28;19922;-75
2023/08/18 07:36:53;;;;;;;;;;;;;;;24.35;100.00;99773.47;4975663;28;19964;-76
2023/08/18 07:39:18;;;;;;;;;;;;;;;24.42;100.00;99780.44;4974531;28;19922;-75
2023/08/18 07:41:44;;;;;;;;;;;;;;;24.54;100.00;99779.66;4974989;28;19933;-79
2023/08/18 07:44:10;;;;;;;;;;;;;;;24.64;100.00;99772.66;4975788;28;19929;-75
2023/08/18 07:46:35;;;;;;;;;;;;;;;24.62;100.00;99774.78;4989859;28;19969;-75
2023/08/18 07:49:01;;;;;;;;;;;;;;;24.73;100.00;99765.91;4975335;28;19964;-77
2023/08/18 07:51:27;;;;;;;;;;;;;;;24.74;100.00;99767.53;4974993;28;21369;-78
2023/08/18 07:53:53;;;;;;;;;;;;;;;24.78;100.00;99767.91;4974947;28;20327;-76
2023/08/18 07:56:18;;;;;;;;;;;;;;;24.77;100.00;99761.69;4974666;28;19918;-77
2023/08/18 07:58:43;;;;;;;;;;;;;;;24.87;100.00;99761.94;4974918;28;19993;-76
2023/08/18 08:01:09;;;;;;;;;;;;;;;24.92;100.00;99757.78;4975121;28;19929;-75
2023/08/18 08:03:35;;;;;;;;;;;;;;;24.97;100.00;99752.50;4989867;28;19922;-76
2023/08/18 08:06:01;;;;;;;;;;;;;;;25.05;100.00;99757.53;4975095;28;19922;-77
2023/08/18 08:08:26;;;;;;;;;;;;;;;25.14;100.00;99756.19;4974782;28;20008;-76
2023/08/18 08:10:52;;;;;;;;;;;;;;;25.23;100.00;99757.47;4989122;28;20271;-78
2023/08/18 08:13:17;;;;;;;;;;;;;;;25.26;100.00;99747.03;4989988;28;19961;-76
2023/08/18 08:15:45;;;;;;;;;;;;;;;25.36;100.00;99748.31;4989714;28;19922;-76
2023/08/18 08:18:13;;;;;;;;;;;;;;;25.46;100.00;99743.97;4974530;28;20016;-75
2023/08/18 08:20:39;;;;;;;;;;;;;;;25.49;100.00;99738.13;4974599;28;20385;-75
2023/08/18 08:23:05;;;;;;;;;;;;;;;25.56;100.00;99744.25;4974939;28;19929;-74
2023/08/18 08:25:30;;;;;;;;;;;;;;;25.63;100.00;99742.25;4973899;28;20306;-75
2023/08/18 08:27:56;;;;;;;;;;;;;;;25.68;100.00;99736.16;4974213;28;19961;-76
2023/08/18 08:30:21;;;;;;;;;;;;;;;25.77;100.00;99740.13;4974570;28;20334;-75
2023/08/18 08:32:46;;;;;;;;;;;;;;;25.74;100.00;99745.19;4976740;28;19922;-76
2023/08/18 08:35:11;;;;;;;;;;;;;;;25.80;100.00;99738.84;4973560;28;19922;-74
2023/08/18 08:37:37;;;;;;;;;;;;;;;25.83;100.00;99743.75;4974287;28;19922;-75
2023/08/18 08:40:02;;;;;;;;;;;;;;;25.86;100.00;99735.19;4970163;28;19922;-74
2023/08/18 08:42:28;;;;;;;;;;;;;;;25.94;100.00;99738.31;4988382;28;19957;-75
2023/08/18 08:44:53;;;;;;;;;;;;;;;26.01;100.00;99740.91;4975213;28;20391;-75
2023/08/18 08:47:19;;;;;;;;;;;;;;;26.05;100.00;99737.47;4973601;28;20263;-75
2023/08/18 08:49:45;;;;;;;;;;;;;;;26.14;100.00;99735.22;4974086;28;19926;-76
2023/08/18 08:52:13;;;;;;;;;;;;;;;26.22;100.00;99732.13;4974005;28;19922;-76
2023/08/18 08:54:43;;;;;;;;;;;;;;;26.31;100.00;99725.31;4973319;28;20272;-77
2023/08/18 08:57:09;;;;;;;;;;;;;;;26.41;100.00;99736.34;4973348;28;19984;-78
2023/08/18 08:59:35;;;;;;;;;;;;;;;26.45;100.00;99726.66;4973619;28;19922;-75
2023/08/18 09:02:01;;;;;;;;;;;;;;;26.52;100.00;99742.75;4972405;28;19929;-74
2023/08/18 09:04:26;;;;;;;;;;;;;;;26.58;100.00;99732.84;4973788;28;19922;-77
2023/08/18 09:06:52;;;;;;;;;;;;;;;26.65;100.00;99734.34;4972671;28;19922;-75
2023/08/18 09:09:18;;;;;;;;;;;;;;;26.68;100.00;99738.47;4973563;28;19958;-76
2023/08/18 09:11:45;;;;;;;;;;;;;;;26.69;100.00;99727.38;4972744;28;19969;-76
2023/08/18 09:14:12;;;;;;;;;;;;;;;26.74;100.00;99729.38;4972126;28;20029;-75
2023/08/18 09:16:37;;;;;;;;;;;;;;;26.77;100.00;99727.00;4970935;28;20402;-75
2023/08/18 09:19:03;;;;;;;;;;;;;;;26.83;100.00;99722.50;4971445;28;19922;-77
2023/08/18 09:21:28;;;;;;;;;;;;;;;26.89;100.00;99721.53;4988154;28;20049;-75
2023/08/18 09:23:54;;;;;;;;;;;;;;;26.94;100.00;99724.34;4973449;28;20053;-74
2023/08/18 09:26:20;;;;;;;;;;;;;;;27.00;100.00;99715.22;4973162;28;19929;-73
2023/08/18 09:28:45;;;;;;;;;;;;;;;27.06;100.00;99722.38;4976364;28;19922;-74
2023/08/18 09:31:10;;;;;;;;;;;;;;;27.12;100.00;99715.97;4973047;28;19926;-74
2023/08/18 09:33:36;;;;;;;;;;;;;;;27.18;100.00;99712.28;4972020;28;20310;-74
2023/08/18 09:36:03;;;;;;;;;;;;;;;27.23;100.00;99723.19;4972924;28;19926;-72
2023/08/18 09:38:37;;;;;;;;;;;;;;;27.32;100.00;99714.66;4975877;28;19929;-74
2023/08/18 09:41:03;;;;;;;;;;;;;;;27.37;100.00;99717.44;4969634;28;19922;-75
2023/08/18 09:43:28;;;;;;;;;;;;;;;27.44;100.00;99715.38;4972788;28;19933;-73
2023/08/18 09:45:54;;;;;;;;;;;;;;;27.50;100.00;99708.97;4972559;28;20409;-74
2023/08/18 09:48:21;;;;;;;;;;;;;;;27.55;100.00;99706.34;4973044;28;19929;-72
2023/08/18 09:50:49;;;;;;;;;;;;;;;27.57;100.00;99699.59;4985559;28;19922;-74
2023/08/18 09:53:14;;;;;;;;;;;;;;;27.62;100.00;99704.28;4973410;28;19969;-74
2023/08/18 09:55:44;;;;;;;;;;;;;;;27.66;100.00;99694.59;4976217;28;19977;-73
2023/08/18 09:58:32;;;;;;;;;;;;;;;27.70;100.00;99699.25;4972731;28;20089;-75
2023/08/18 10:00:58;;;;;;;;;;;;;;;27.78;100.00;99691.75;4976234;28;19952;-74
2023/08/18 10:03:28;;;;;;;;;;;;;;;27.81;100.00;99691.22;4972557;28;20394;-75
2023/08/18 10:05:53;;;;;;;;;;;;;;;27.84;100.00;99691.56;4987052;28;19934;-74
2023/08/18 10:08:20;;;;;;;;;;;;;;;27.88;100.00;99687.28;4972617;28;19918;-74
2023/08/18 10:10:46;;;;;;;;;;;;;;;27.92;100.00;99693.03;4973282;28;19929;-74
2023/08/18 10:13:13;;;;;;;;;;;;;;;27.99;99.48;99688.22;4975547;28;19926;-74
2023/08/18 10:15:38;;;;;;;;;;;;;;;28.04;98.67;99680.94;4986450;28;19926;-73
2023/08/18 10:18:09;;;;;;;;;;;;;;;28.11;98.68;99681.59;4975508;28;20435;-74
2023/08/18 10:20:35;;;;;;;;;;;;;;;28.17;98.92;99689.81;4968139;28;20398;-73
2023/08/18 10:23:01;;;;;;;;;;;;;;;28.20;98.56;99679.28;4974623;28;20012;-73
2023/08/18 10:25:29;;;;;;;;;;;;;;;28.24;97.60;99685.00;4972087;28;19933;-73
2023/08/18 10:27:54;;;;;;;;;;;;;;;28.27;96.16;99679.91;4971236;28;19964;-73
2023/08/18 10:30:20;;;;;;;;;;;;;;;28.33;93.70;99675.34;4970247;28;19965;-74
2023/08/18 10:32:45;;;;;;;;;;;;;;;28.41;93.64;99675.69;4969838;28;20006;-72
2023/08/18 10:35:16;;;;;;;;;;;;;;;28.46;94.35;99661.34;4971593;28;19966;-73
2023/08/18 10:37:42;;;;;;;;;;;;;;;28.48;95.01;99661.94;4975420;28;19922;-73
2023/08/18 10:40:08;;;;;;;;;;;;;;;28.50;94.59;99662.50;4972367;28;19928;-73
2023/08/18 10:42:33;;;;;;;;;;;;;;;28.56;95.04;99663.38;4972171;28;20346;-73
2023/08/18 10:45:06;;;;;;;;;;;;;;;28.60;95.40;99662.59;4975234;28;19922;-74
2023/08/18 10:47:32;;;;;;;;;;;;;;;28.63;95.16;99659.34;4971760;28;19926;-75
2023/08/18 10:49:58;;;;;;;;;;;;;;;28.71;93.10;99658.88;4973160;28;21393;-75
2023/08/18 10:52:26;;;;;;;;;;;;;;;28.74;92.79;99661.13;4970026;28;20025;-74
2023/08/18 10:54:51;;;;;;;;;;;;;;;28.80;90.89;99657.38;4969899;28;20417;-75
2023/08/18 10:57:16;;;;;;;;;;;;;;;28.84;92.34;99652.22;4971559;28;19925;-75
2023/08/18 10:59:42;;;;;;;;;;;;;;;28.86;91.32;99648.16;4971654;28;19934;-75
2023/08/18 11:02:07;;;;;;;;;;;;;;;28.87;92.29;99649.81;4971835;28;19925;-77
2023/08/18 11:04:33;;;;;;;;;;;;;;;28.90;92.18;99643.88;4971677;28;19945;-76
2023/08/18 11:06:58;;;;;;;;;;;;;;;28.92;91.49;99644.41;4972167;28;19969;-75
2023/08/18 11:09:23;;;;;;;;;;;;;;;28.95;90.65;99643.06;4986716;28;19922;-76
2023/08/18 11:11:49;;;;;;;;;;;;;;;29.00;89.91;99639.56;4972298;28;19922;-75
2023/08/18 11:14:14;;;;;;;;;;;;;;;29.02;90.20;99632.81;4972215;28;19929;-75
2023/08/18 11:16:39;;;;;;;;;;;;;;;29.13;89.00;99639.13;4971524;28;19937;-75
2023/08/18 11:19:05;;;;;;;;;;;;;;;29.24;87.17;99630.78;4974555;28;19922;-76
2023/08/18 11:21:31;;;;;;;;;;;;;;;29.34;86.10;99646.34;4971694;28;20392;-78
2023/08/18 11:23:56;;;;;;;;;;;;;;;29.34;87.31;99630.03;4972094;28;19944;-76
2023/08/18 11:26:22;;;;;;;;;;;;;;;29.33;88.53;99631.16;4971689;28;20266;-77
2023/08/18 11:28:48;;;;;;;;;;;;;;;29.34;86.94;99630.03;4971911;28;19922;-78
2023/08/18 11:31:13;;;;;;;;;;;;;;;29.34;87.74;99624.59;4971493;28;19929;-78
2023/08/18 11:33:39;;;;;;;;;;;;;;;29.35;87.19;99620.81;4971137;28;19930;-81
2023/08/18 11:36:05;;;;;;;;;;;;;;;29.38;87.79;99620.28;4971782;28;19929;-76
2023/08/18 11:38:31;;;;;;;;;;;;;;;29.41;88.23;99614.31;4971527;28;20318;-77
2023/08/18 11:40:57;;;;;;;;;;;;;;;29.47;87.79;99615.97;4971708;28;19928;-75
2023/08/18 11:43:23;;;;;;;;;;;;;;;29.51;87.52;99619.78;4971320;28;19922;-76
2023/08/18 11:45:48;;;;;;;;;;;;;;;29.60;86.02;99614.69;4971491;28;19976;-74
2023/08/18 11:48:14;;;;;;;;;;;;;;;29.65;85.05;99609.25;4974454;28;19921;-76
2023/08/18 11:50:42;;;;;;;;;;;;;;;29.76;83.64;99610.94;4970739;28;19929;-76
2023/08/18 11:53:08;;;;;;;;;;;;;;;29.80;84.64;99611.22;4971309;28;20390;-76
2023/08/18 11:55:35;;;;;;;;;;;;;;;29.84;83.74;99607.69;4967176;28;19923;-78
2023/08/18 11:58:09;;;;;;;;;;;;;;;29.92;83.34;99606.41;4970168;28;19929;-78
2023/08/18 12:00:36;;;;;;;;;;;;;;;30.00;80.58;99600.41;4967671;28;20017;-77
2023/08/18 12:03:03;;;;;;;;;;;;;;;30.08;81.25;99602.63;4971231;28;19925;-79
2023/08/18 12:05:28;;;;;;;;;;;;;;;30.23;79.58;99593.66;4970922;28;19930;-77
2023/08/18 12:07:54;;;;;;;;;;;;;;;30.40;77.38;99594.22;4971127;28;19985;-77
2023/08/18 12:10:19;;;;;;;;;;;;;;;30.51;77.65;99599.44;4971856;28;19922;-75
2023/08/18 12:12:54;;;;;;;;;;;;;;;30.68;76.32;99592.91;4974516;28;19930;-76
2023/08/18 12:15:23;;;;;;;;;;;;;;;30.90;74.91;99598.88;4975370;28;20449;-84
2023/08/18 12:17:49;;;;;;;;;;;;;;;31.20;72.92;99596.13;4975520;28;19957;-83
2023/08/18 12:20:14;;;;;;;;;;;;;;;31.48;69.21;99588.41;4976019;28;19965;-85
2023/08/18 12:22:39;;;;;;;;;;;;;;;31.75;69.04;99593.50;4975764;28;20746;-83
2023/08/18 12:25:05;;;;;;;;;;;;;;;32.01;68.84;99589.53;4975918;28;19930;-85
2023/08/18 12:27:31;;;;;;;;;;;;;;;32.24;66.54;99586.13;4975797;28;19922;-88
2023/08/18 12:29:56;;;;;;;;;;;;;;;32.33;62.81;99581.69;4980161;28;20349;-90
2023/08/18 12:32:22;;;;;;;;;;;;;;;32.45;60.75;99584.06;4976063;28;19925;-90